createdAt,value
2019-06-27T00:01:46.058Z,22.70
2019-06-27T00:04:13.387Z,22.60
2019-06-27T00:06:40.990Z,22.60
2019-06-27T00:09:10.383Z,22.50
2019-06-27T00:11:37.706Z,22.40
2019-06-27T00:14:05.055Z,22.40
2019-06-27T00:16:32.301Z,22.40
2019-06-27T00:18:59.538Z,22.40
2019-06-27T00:21:26.843Z,22.30
2019-06-27T00:23:54.069Z,22.40
2019-06-27T00:26:21.321Z,22.40
2019-06-27T00:28:49.014Z,22.30
2019-06-27T00:31:16.322Z,22.40
2019-06-27T00:33:43.586Z,22.30
2019-06-27T00:36:10.944Z,22.40
2019-06-27T00:38:38.170Z,22.40
2019-06-27T00:41:05.419Z,22.30
2019-06-27T00:43:32.646Z,22.30
2019-06-27T00:46:00.122Z,22.20
2019-06-27T00:48:27.350Z,22.20
2019-06-27T00:50:55.129Z,22.30
2019-06-27T00:53:22.631Z,22.20
2019-06-27T00:55:49.954Z,22.20
2019-06-27T00:58:17.221Z,22.00
2019-06-27T01:00:44.505Z,22.00
2019-06-27T01:03:11.811Z,22.00
2019-06-27T01:05:39.069Z,21.90
2019-06-27T01:08:06.289Z,21.80
2019-06-27T01:10:33.601Z,21.90
2019-06-27T01:13:00.859Z,21.80
2019-06-27T01:15:28.444Z,21.80
2019-06-27T01:17:55.794Z,21.70
2019-06-27T01:20:23.093Z,21.60
2019-06-27T01:22:50.337Z,21.60
2019-06-27T01:25:17.670Z,21.70
2019-06-27T01:27:45.003Z,21.70
2019-06-27T01:30:12.735Z,21.70
2019-06-27T01:32:40.328Z,21.80
2019-06-27T01:35:08.687Z,21.90
2019-06-27T01:37:36.278Z,22.00
2019-06-27T01:40:04.409Z,22.10
2019-06-27T01:42:31.665Z,22.20
2019-06-27T01:45:21.207Z,22.30
2019-06-27T01:47:48.642Z,22.30
2019-06-27T01:50:16.022Z,22.40
2019-06-27T01:52:43.258Z,22.40
2019-06-27T01:55:10.591Z,22.30
2019-06-27T01:57:46.514Z,22.30
2019-06-27T02:00:07.880Z,22.40
2019-06-27T02:02:35.403Z,22.30
2019-06-27T02:05:02.686Z,22.30
2019-06-27T02:07:30.175Z,22.30
2019-06-27T02:09:57.501Z,22.40
2019-06-27T02:12:24.746Z,22.50
2019-06-27T02:14:54.436Z,22.50
2019-06-27T02:17:21.783Z,22.50
2019-06-27T02:19:57.858Z,22.40
2019-06-27T02:22:26.750Z,22.40
2019-06-27T02:24:55.134Z,22.40
2019-06-27T02:27:22.487Z,22.30
2019-06-27T02:29:49.823Z,22.20
2019-06-27T02:32:17.181Z,22.30
2019-06-27T02:34:44.824Z,22.20
2019-06-27T02:37:12.170Z,22.20
2019-06-27T02:39:39.493Z,22.40
2019-06-27T02:42:06.897Z,22.30
2019-06-27T02:44:34.226Z,22.30
2019-06-27T02:47:01.462Z,22.10
2019-06-27T02:49:28.702Z,22.10
2019-06-27T02:51:56.023Z,22.20
2019-06-27T02:54:23.260Z,22.30
2019-06-27T02:56:50.611Z,22.30
2019-06-27T02:59:19.463Z,22.20
2019-06-27T03:01:46.780Z,22.30
2019-06-27T03:04:19.168Z,22.30
2019-06-27T03:06:49.440Z,22.30
2019-06-27T03:09:16.882Z,22.30
2019-06-27T03:11:47.147Z,22.20
2019-06-27T03:14:16.367Z,22.20
2019-06-27T03:16:43.698Z,22.20
2019-06-27T03:19:11.042Z,22.10
2019-06-27T03:21:38.723Z,21.90
2019-06-27T03:24:06.467Z,21.90
2019-06-27T03:26:37.475Z,21.80
2019-06-27T03:29:05.063Z,21.80
2019-06-27T03:31:32.291Z,21.70
2019-06-27T03:33:59.546Z,21.60
2019-06-27T03:36:26.888Z,21.60
2019-06-27T03:38:54.190Z,21.60
2019-06-27T03:41:21.420Z,21.50
2019-06-27T03:43:48.670Z,21.50
2019-06-27T03:46:15.917Z,21.50
2019-06-27T03:48:43.472Z,21.50
2019-06-27T03:51:10.804Z,21.60
2019-06-27T03:53:38.490Z,21.50
2019-06-27T03:56:05.729Z,21.60
2019-06-27T03:58:33.304Z,21.60
2019-06-27T04:01:00.658Z,21.70
2019-06-27T04:03:27.999Z,21.80
2019-06-27T04:05:55.577Z,21.80
2019-06-27T04:08:22.913Z,21.90
2019-06-27T04:10:50.151Z,22.00
2019-06-27T04:13:17.529Z,22.10
2019-06-27T04:15:44.936Z,22.10
2019-06-27T04:18:12.275Z,21.90
2019-06-27T04:20:39.903Z,22.20
2019-06-27T04:23:07.556Z,22.50
2019-06-27T04:25:35.130Z,22.60
2019-06-27T04:28:02.399Z,22.70
2019-06-27T04:30:29.759Z,22.70
2019-06-27T04:32:57.004Z,22.80
2019-06-27T04:35:24.378Z,22.90
2019-06-27T04:37:51.631Z,22.90
2019-06-27T04:40:19.003Z,22.90
2019-06-27T04:42:46.247Z,22.80
2019-06-27T04:45:14.179Z,22.80
2019-06-27T04:47:41.431Z,22.80
2019-06-27T04:50:08.890Z,22.80
2019-06-27T04:52:36.237Z,22.80
2019-06-27T04:55:06.072Z,22.70
2019-06-27T04:57:33.419Z,22.70
2019-06-27T05:00:00.715Z,22.60
2019-06-27T05:02:30.791Z,22.70
2019-06-27T05:04:58.055Z,22.70
2019-06-27T05:07:25.671Z,22.80
2019-06-27T05:09:53.008Z,22.80
2019-06-27T05:12:20.334Z,22.80
2019-06-27T05:14:47.594Z,22.80
2019-06-27T05:17:14.831Z,22.80
2019-06-27T05:19:42.447Z,22.80
2019-06-27T05:22:09.797Z,22.90
2019-06-27T05:24:37.154Z,22.90
2019-06-27T05:27:04.839Z,22.80
2019-06-27T05:29:32.079Z,22.90
2019-06-27T05:31:59.322Z,22.90
2019-06-27T05:34:26.989Z,23.10
2019-06-27T05:36:54.554Z,23.30
2019-06-27T05:39:22.425Z,23.70
2019-06-27T05:41:50.686Z,23.80
2019-06-27T05:44:18.106Z,23.80
2019-06-27T05:46:45.440Z,23.80
2019-06-27T05:49:12.774Z,24.00
2019-06-27T05:51:40.403Z,23.90
2019-06-27T05:54:08.386Z,23.80
2019-06-27T05:56:35.785Z,23.90
2019-06-27T05:59:03.392Z,24.00
2019-06-27T06:01:30.749Z,24.10
2019-06-27T06:03:58.417Z,24.30
2019-06-27T06:06:25.749Z,24.40
2019-06-27T06:08:53.320Z,24.40
2019-06-27T06:11:20.605Z,24.40
2019-06-27T06:13:47.929Z,24.50
2019-06-27T06:16:15.251Z,24.70
2019-06-27T06:18:42.854Z,24.80
2019-06-27T06:21:10.497Z,24.70
2019-06-27T06:23:37.820Z,24.80
2019-06-27T06:26:05.283Z,24.60
2019-06-27T06:28:33.173Z,24.70
2019-06-27T06:31:01.274Z,24.70
2019-06-27T06:33:29.990Z,24.50
2019-06-27T06:35:57.665Z,24.60
2019-06-27T06:38:25.153Z,24.50
2019-06-27T06:40:52.402Z,24.40
2019-06-27T06:43:20.117Z,24.40
2019-06-27T06:45:47.649Z,24.30
2019-06-27T06:48:15.186Z,24.40
2019-06-27T06:50:42.747Z,24.50
2019-06-27T06:53:09.989Z,24.80
2019-06-27T06:55:37.237Z,24.80
2019-06-27T06:58:04.553Z,24.70
2019-06-27T07:00:31.783Z,24.70
2019-06-27T07:02:59.162Z,24.80
2019-06-27T07:05:26.636Z,24.80
2019-06-27T07:07:54.239Z,24.80
2019-06-27T07:10:21.754Z,24.90
2019-06-27T07:12:48.997Z,25.00
2019-06-27T07:15:16.332Z,25.10
2019-06-27T07:17:43.954Z,25.10
2019-06-27T07:20:12.096Z,25.10
2019-06-27T07:22:39.505Z,25.30
2019-06-27T07:25:06.925Z,25.20
2019-06-27T07:27:34.497Z,25.40
2019-06-27T07:30:01.745Z,25.60
2019-06-27T07:32:29.179Z,25.40
2019-06-27T07:34:57.098Z,25.60
2019-06-27T07:37:24.337Z,25.80
2019-06-27T07:39:52.977Z,25.90
2019-06-27T07:42:20.484Z,26.00
2019-06-27T07:44:49.033Z,26.10
2019-06-27T07:47:16.517Z,26.20
2019-06-27T07:49:44.473Z,26.30
2019-06-27T07:52:12.121Z,26.40
2019-06-27T07:54:40.530Z,26.40
2019-06-27T07:57:07.901Z,26.30
2019-06-27T07:59:36.098Z,26.40
2019-06-27T08:02:03.999Z,26.40
2019-06-27T08:04:31.734Z,26.40
2019-06-27T08:06:59.345Z,26.30
2019-06-27T08:09:26.622Z,26.40
2019-06-27T08:11:53.848Z,26.60
2019-06-27T08:14:21.407Z,26.80
2019-06-27T08:16:48.746Z,27.00
2019-06-27T08:19:16.274Z,27.10
2019-06-27T08:21:43.591Z,27.50
2019-06-27T08:24:10.996Z,27.70
2019-06-27T08:26:38.310Z,27.80
2019-06-27T08:29:06.038Z,28.00
2019-06-27T08:31:33.603Z,28.20
2019-06-27T08:34:00.970Z,28.40
2019-06-27T08:36:28.605Z,28.40
2019-06-27T08:38:56.277Z,29.10
2019-06-27T08:41:23.609Z,29.20
2019-06-27T08:43:50.914Z,29.80
2019-06-27T08:46:18.397Z,30.10
2019-06-27T08:48:45.898Z,30.40
2019-06-27T08:51:13.258Z,30.30
2019-06-27T08:53:40.585Z,30.00
2019-06-27T08:56:07.994Z,29.60
2019-06-27T08:58:35.653Z,28.90
2019-06-27T09:01:02.959Z,28.80
2019-06-27T09:03:30.658Z,28.70
2019-06-27T09:05:57.904Z,28.90
2019-06-27T09:08:25.484Z,28.70
2019-06-27T09:10:52.715Z,28.90
2019-06-27T09:13:20.258Z,29.10
2019-06-27T09:15:47.487Z,29.20
2019-06-27T09:18:15.353Z,29.00
2019-06-27T09:20:42.637Z,28.60
2019-06-27T09:23:10.031Z,28.60
2019-06-27T09:25:37.260Z,28.50
2019-06-27T09:28:04.582Z,28.70
2019-06-27T09:30:31.921Z,28.60
2019-06-27T09:32:59.188Z,28.50
2019-06-27T09:35:26.555Z,28.60
2019-06-27T09:37:54.110Z,28.70
2019-06-27T09:40:21.444Z,28.90
2019-06-27T09:42:48.778Z,28.80
2019-06-27T09:45:16.810Z,29.00
2019-06-27T09:47:44.064Z,28.80
2019-06-27T09:50:11.920Z,28.70
2019-06-27T09:52:39.841Z,28.80
2019-06-27T09:55:07.671Z,29.00
2019-06-27T09:57:34.935Z,29.00
2019-06-27T10:00:02.361Z,29.00
2019-06-27T10:02:41.028Z,28.70
2019-06-27T10:04:59.537Z,28.90
2019-06-27T10:07:26.939Z,29.00
2019-06-27T10:09:54.529Z,29.50
2019-06-27T10:12:22.085Z,29.70
2019-06-27T10:14:49.349Z,30.00
2019-06-27T10:17:16.575Z,29.90
2019-06-27T10:19:43.818Z,29.70
2019-06-27T10:22:11.508Z,29.50
2019-06-27T10:24:38.739Z,29.90
2019-06-27T10:27:06.313Z,30.10
2019-06-27T10:29:33.586Z,30.20
2019-06-27T10:32:01.253Z,30.20
2019-06-27T10:34:28.915Z,30.40
2019-06-27T10:36:56.577Z,30.50
2019-06-27T10:39:24.637Z,30.90
2019-06-27T10:41:52.196Z,30.90
2019-06-27T10:44:19.650Z,31.10
2019-06-27T10:46:47.212Z,31.30
2019-06-27T10:49:14.780Z,31.30
2019-06-27T10:51:42.549Z,31.70
2019-06-27T10:54:09.899Z,32.30
2019-06-27T10:56:39.871Z,31.80
2019-06-27T10:59:07.086Z,32.20
2019-06-27T11:01:34.841Z,32.50
2019-06-27T11:04:02.187Z,32.90
2019-06-27T11:06:29.521Z,33.50
2019-06-27T11:08:57.257Z,33.80
2019-06-27T11:11:24.980Z,34.70
2019-06-27T11:13:58.688Z,34.70
2019-06-27T11:16:22.102Z,35.00
2019-06-27T11:19:08.854Z,35.10
2019-06-27T11:21:37.009Z,34.60
2019-06-27T11:24:04.415Z,35.20
2019-06-27T11:26:32.312Z,35.60
2019-06-27T11:28:59.941Z,35.80
2019-06-27T11:31:27.565Z,35.40
2019-06-27T11:33:54.966Z,35.60
2019-06-27T11:36:22.585Z,35.70
2019-06-27T11:38:49.929Z,35.70
2019-06-27T11:41:17.474Z,35.70
2019-06-27T11:43:45.169Z,35.90
2019-06-27T11:46:13.318Z,35.80
2019-06-27T11:48:40.966Z,35.00
2019-06-27T11:51:08.367Z,35.60
2019-06-27T11:53:36.114Z,35.40
2019-06-27T11:56:03.453Z,35.30
2019-06-27T11:58:30.941Z,35.80
2019-06-27T12:00:58.195Z,36.00
2019-06-27T12:03:25.590Z,36.00
2019-06-27T12:05:53.694Z,35.50
2019-06-27T12:08:21.986Z,35.70
2019-06-27T12:10:50.804Z,35.90
2019-06-27T12:13:18.796Z,35.10
2019-06-27T12:15:46.610Z,35.20
2019-06-27T12:18:13.984Z,35.50
2019-06-27T12:20:41.703Z,35.60
2019-06-27T12:23:09.406Z,35.20
2019-06-27T12:25:36.769Z,35.30
2019-06-27T12:28:04.948Z,36.00
2019-06-27T12:30:33.829Z,36.00
2019-06-27T12:33:02.216Z,35.60
2019-06-27T12:35:29.936Z,35.40
2019-06-27T12:37:57.165Z,35.70
2019-06-27T12:40:25.235Z,35.80
2019-06-27T12:42:52.894Z,35.60
2019-06-27T12:45:20.551Z,35.20
2019-06-27T12:47:47.784Z,34.90
2019-06-27T12:50:15.571Z,34.50
2019-06-27T12:52:43.547Z,34.10
2019-06-27T12:55:11.306Z,33.80
2019-06-27T12:57:38.986Z,33.50
2019-06-27T13:00:08.890Z,33.30
2019-06-27T13:02:36.026Z,33.40
2019-06-27T13:05:03.893Z,33.30
2019-06-27T13:07:34.141Z,32.90
2019-06-27T13:10:01.873Z,32.70
2019-06-27T13:12:29.694Z,32.60
2019-06-27T13:14:57.722Z,32.50
2019-06-27T13:17:27.147Z,32.40
2019-06-27T13:19:55.025Z,32.40
2019-06-27T13:22:28.773Z,32.30
2019-06-27T13:24:56.837Z,32.20
2019-06-27T13:27:24.145Z,32.10
2019-06-27T13:29:52.598Z,32.10
2019-06-27T13:32:20.238Z,32.00
2019-06-27T13:34:47.621Z,31.60
2019-06-27T13:37:15.280Z,31.40
2019-06-27T13:39:43.939Z,31.60
2019-06-27T13:42:12.024Z,31.70
2019-06-27T13:44:40.171Z,31.70
2019-06-27T13:47:07.500Z,31.80
2019-06-27T13:49:34.825Z,31.80
2019-06-27T13:52:02.052Z,31.80
2019-06-27T13:54:29.305Z,31.50
2019-06-27T13:56:56.606Z,31.40
2019-06-27T13:59:24.354Z,31.50
2019-06-27T14:01:52.166Z,31.40
2019-06-27T14:04:19.432Z,30.90
2019-06-27T14:06:47.243Z,31.20
2019-06-27T14:09:22.928Z,31.40
2019-06-27T14:11:44.086Z,31.40
2019-06-27T14:14:11.699Z,31.30
2019-06-27T14:16:38.985Z,31.10
2019-06-27T14:19:06.588Z,30.90
2019-06-27T14:21:34.468Z,31.00
2019-06-27T14:24:01.747Z,30.90
2019-06-27T14:26:29.114Z,31.10
2019-06-27T14:28:57.389Z,30.80
2019-06-27T14:31:25.777Z,30.80
2019-06-27T14:33:53.659Z,30.70
2019-06-27T14:36:21.026Z,30.60
2019-06-27T14:38:48.323Z,30.60
2019-06-27T14:41:16.016Z,30.50
2019-06-27T14:43:43.297Z,30.50
2019-06-27T14:46:10.664Z,30.60
2019-06-27T14:48:38.002Z,30.60
2019-06-27T14:51:05.371Z,30.70
2019-06-27T14:53:32.981Z,30.60
2019-06-27T14:56:00.345Z,30.60
2019-06-27T14:58:27.673Z,30.60
2019-06-27T15:00:55.604Z,30.60
2019-06-27T15:03:22.974Z,30.60
2019-06-27T15:05:50.695Z,30.30
2019-06-27T15:08:18.053Z,30.40
2019-06-27T15:10:45.806Z,30.60
2019-06-27T15:13:13.042Z,30.30
2019-06-27T15:15:40.613Z,30.30
2019-06-27T15:18:08.749Z,30.30
2019-06-27T15:20:36.751Z,30.40
2019-06-27T15:23:04.364Z,30.50
2019-06-27T15:25:31.747Z,30.40
2019-06-27T15:27:59.181Z,30.50
2019-06-27T15:30:28.167Z,30.40
2019-06-27T15:32:55.932Z,30.30
2019-06-27T15:35:23.242Z,30.10
2019-06-27T15:37:50.480Z,30.20
2019-06-27T15:40:17.798Z,30.10
2019-06-27T15:42:45.415Z,30.00
2019-06-27T15:45:13.022Z,30.00
2019-06-27T15:47:42.082Z,30.10
2019-06-27T15:50:09.831Z,30.20
2019-06-27T15:52:37.499Z,30.30
2019-06-27T15:55:04.853Z,29.90
2019-06-27T15:57:32.611Z,29.80
2019-06-27T16:00:00.092Z,30.00
2019-06-27T16:02:27.450Z,29.90
2019-06-27T16:04:54.838Z,30.00
2019-06-27T16:07:22.182Z,29.90
2019-06-27T16:09:49.418Z,29.70
2019-06-27T16:12:16.814Z,29.70
2019-06-27T16:14:45.431Z,29.80
2019-06-27T16:17:13.257Z,29.80
2019-06-27T16:19:41.021Z,29.90
2019-06-27T16:22:09.350Z,29.80
2019-06-27T16:24:40.020Z,29.70
2019-06-27T16:27:07.445Z,29.70
2019-06-27T16:29:34.711Z,29.90
2019-06-27T16:32:02.334Z,29.90
2019-06-27T16:34:29.569Z,29.90
2019-06-27T16:36:56.798Z,29.80
2019-06-27T16:39:24.515Z,29.90
2019-06-27T16:41:52.293Z,29.80
2019-06-27T16:44:19.938Z,29.90
2019-06-27T16:46:47.399Z,30.00
2019-06-27T16:49:14.624Z,30.00
2019-06-27T16:51:42.025Z,29.90
2019-06-27T16:54:09.248Z,29.80
2019-06-27T16:56:36.494Z,29.80
2019-06-27T16:59:04.073Z,29.60
2019-06-27T17:01:31.334Z,29.50
2019-06-27T17:03:58.554Z,29.40
2019-06-27T17:06:40.806Z,29.50
2019-06-27T17:08:56.667Z,29.50
2019-06-27T17:11:23.913Z,29.40
2019-06-27T17:13:51.142Z,29.30
2019-06-27T17:16:21.330Z,29.50
2019-06-27T17:18:47.582Z,29.40
2019-06-27T17:21:15.493Z,29.50
2019-06-27T17:23:42.716Z,29.50
2019-06-27T17:26:11.702Z,29.40
2019-06-27T17:28:39.471Z,29.40
2019-06-27T17:31:06.738Z,29.40
2019-06-27T17:33:34.381Z,29.40
2019-06-27T17:36:01.950Z,29.30
2019-06-27T17:38:32.782Z,29.20
2019-06-27T17:41:00.077Z,29.10
2019-06-27T17:43:27.320Z,28.70
2019-06-27T17:45:55.127Z,28.60
2019-06-27T17:48:22.933Z,28.60
2019-06-27T17:50:51.220Z,28.50
2019-06-27T17:53:19.231Z,28.40
2019-06-27T17:55:46.917Z,28.30
2019-06-27T17:58:15.695Z,28.20
2019-06-27T18:00:43.521Z,28.10
2019-06-27T18:03:11.919Z,28.10
2019-06-27T18:05:39.193Z,28.10
2019-06-27T18:08:06.537Z,28.00
2019-06-27T18:10:33.881Z,28.00
2019-06-27T18:13:07.547Z,27.80
2019-06-27T18:15:35.113Z,27.70
2019-06-27T18:18:03.778Z,27.70
2019-06-27T18:20:32.013Z,27.60
2019-06-27T18:22:59.919Z,27.40
2019-06-27T18:25:27.941Z,27.20
2019-06-27T18:27:57.671Z,27.10
2019-06-27T18:30:25.476Z,27.00
2019-06-27T18:32:53.050Z,26.80
2019-06-27T18:35:20.382Z,26.80
2019-06-27T18:37:48.303Z,26.70
2019-06-27T18:40:16.722Z,26.60
2019-06-27T18:42:44.066Z,26.50
2019-06-27T18:45:11.614Z,26.50
2019-06-27T18:47:39.325Z,26.50
2019-06-27T18:50:09.841Z,26.50
2019-06-27T18:52:37.278Z,26.40
2019-06-27T18:55:06.101Z,26.30
2019-06-27T18:57:33.663Z,26.30
2019-06-27T19:00:01.256Z,26.20
2019-06-27T19:02:28.834Z,26.20
2019-06-27T19:04:56.063Z,26.20
2019-06-27T19:07:23.478Z,26.20
2019-06-27T19:09:51.058Z,26.20
2019-06-27T19:12:19.283Z,26.10
2019-06-27T19:14:47.572Z,26.00
2019-06-27T19:17:16.258Z,26.00
2019-06-27T19:19:47.286Z,26.00
2019-06-27T19:22:34.474Z,25.90
2019-06-27T19:25:17.328Z,25.90
2019-06-27T19:27:44.730Z,25.80
2019-06-27T19:30:12.082Z,25.80
2019-06-27T19:32:39.413Z,25.80
2019-06-27T19:35:06.774Z,25.70
2019-06-27T19:37:34.021Z,25.70
2019-06-27T19:40:01.600Z,25.70
2019-06-27T19:42:29.267Z,25.60
2019-06-27T19:44:56.594Z,25.50
2019-06-27T19:47:23.853Z,25.50
2019-06-27T19:49:51.092Z,25.40
2019-06-27T19:52:18.574Z,25.20
2019-06-27T19:54:45.810Z,24.90
2019-06-27T19:57:13.401Z,24.80
2019-06-27T19:59:40.653Z,24.30
2019-06-27T20:02:08.324Z,24.10
2019-06-27T20:04:36.063Z,24.00
2019-06-27T20:07:03.425Z,23.90
2019-06-27T20:09:30.983Z,23.90
2019-06-27T20:11:58.310Z,23.80
2019-06-27T20:14:25.893Z,23.80
2019-06-27T20:16:53.543Z,23.70
2019-06-27T20:19:20.805Z,23.50
2019-06-27T20:21:48.134Z,23.40
2019-06-27T20:24:15.558Z,23.30
2019-06-27T20:26:43.189Z,23.20
2019-06-27T20:29:10.730Z,23.20
2019-06-27T20:31:37.957Z,23.20
2019-06-27T20:34:05.848Z,23.20
2019-06-27T20:36:33.074Z,23.00
2019-06-27T20:39:00.660Z,22.80
2019-06-27T20:41:29.445Z,22.70
2019-06-27T20:43:57.329Z,22.60
2019-06-27T20:46:24.654Z,22.60
2019-06-27T20:48:54.018Z,22.40
2019-06-27T20:51:21.481Z,22.40
2019-06-27T20:53:48.914Z,22.30
2019-06-27T20:56:17.041Z,22.30
2019-06-27T20:58:44.918Z,22.10
2019-06-27T21:01:12.151Z,22.00
2019-06-27T21:03:39.379Z,22.00
2019-06-27T21:06:06.602Z,21.90
2019-06-27T21:08:50.020Z,21.80
2019-06-27T21:11:03.257Z,21.70
2019-06-27T21:13:30.585Z,21.70
2019-06-27T21:15:57.808Z,21.70
2019-06-27T21:18:25.394Z,21.60
2019-06-27T21:20:52.670Z,21.50
2019-06-27T21:23:20.063Z,21.60
2019-06-27T21:25:47.415Z,21.50
2019-06-27T21:28:14.725Z,21.30
2019-06-27T21:30:42.784Z,21.30
2019-06-27T21:33:10.106Z,21.20
2019-06-27T21:35:37.737Z,21.20
2019-06-27T21:38:05.125Z,21.20
2019-06-27T21:40:32.810Z,21.00
2019-06-27T21:43:00.631Z,20.80
2019-06-27T21:45:27.854Z,20.70
2019-06-27T21:47:55.149Z,20.70
2019-06-27T21:50:22.762Z,20.70
2019-06-27T21:52:50.611Z,20.70
2019-06-27T21:55:17.921Z,20.70
2019-06-27T21:57:45.421Z,20.80
2019-06-27T22:00:13.084Z,21.00
2019-06-27T22:02:40.411Z,20.80
2019-06-27T22:05:07.998Z,20.60
2019-06-27T22:07:35.312Z,20.40
2019-06-27T22:10:02.685Z,20.50
2019-06-27T22:12:34.151Z,20.50
2019-06-27T22:15:00.114Z,20.50
2019-06-27T22:17:27.846Z,20.50
2019-06-27T22:19:55.202Z,20.50
2019-06-27T22:22:22.431Z,20.60
2019-06-27T22:24:50.002Z,20.50
2019-06-27T22:27:17.687Z,20.40
2019-06-27T22:29:44.940Z,20.20
2019-06-27T22:32:12.165Z,20.10
2019-06-27T22:34:39.741Z,19.90
2019-06-27T22:37:07.460Z,19.80
2019-06-27T22:39:53.050Z,19.60
2019-06-27T22:42:38.190Z,19.40
2019-06-27T22:45:24.759Z,19.20
2019-06-27T22:48:10.947Z,18.90
2019-06-27T22:50:52.753Z,18.70
2019-06-27T22:53:21.487Z,18.50
2019-06-27T22:55:48.947Z,18.30
2019-06-27T22:58:16.539Z,18.20
2019-06-27T23:00:43.961Z,18.00
2019-06-27T23:03:12.594Z,17.90
2019-06-27T23:05:39.898Z,17.80
2019-06-27T23:08:07.118Z,17.90
2019-06-27T23:10:34.353Z,17.90
2019-06-27T23:13:01.613Z,17.70
2019-06-27T23:15:29.575Z,17.60
2019-06-27T23:17:57.219Z,17.50
2019-06-27T23:20:24.778Z,17.40
2019-06-27T23:22:52.641Z,17.40
2019-06-27T23:25:20.202Z,17.40
2019-06-27T23:27:47.451Z,17.40
2019-06-27T23:30:15.265Z,17.40
2019-06-27T23:32:42.565Z,17.40
2019-06-27T23:35:10.439Z,17.40
2019-06-27T23:37:38.101Z,17.40
2019-06-27T23:40:14.009Z,17.30
2019-06-27T23:42:35.177Z,17.20
2019-06-27T23:45:02.421Z,17.10
2019-06-27T23:47:30.098Z,17.00
2019-06-27T23:49:57.328Z,16.90
2019-06-27T23:52:24.656Z,16.80
2019-06-27T23:54:52.341Z,16.60
2019-06-27T23:57:19.582Z,16.50
2019-06-27T23:59:47.156Z,16.40
